AT-0002 weather

Scalaria Airchallenge Water Landing Area
Lake Wolfgang, Upper Austria, Austria

Public forecast

Using degrees Celsius for public forecast. Weather courtesy of forecast.io.

METAR (pilot weather report)

Closest report is Salzburg Airport, 18.1 nm (33.5 km) WNW. Retrieved 2019/03/23 01:20 UTC (40 minutes ago):

LOWS 230120Z AUTO 16008KT 9999 NSC 05/00 Q1028

TAF (pilot weather forecast)

Forecast is more than 12 hours old.

Closest forecast is Salzburg Airport, 18.1 nm (33.5 km) WNW. Retrieved 2019/03/22 00:21 UTC (1 day ago):

TAF LOWS 222315Z 2300/2324 16005KT CAVOK TX19/2315Z TN02/2305Z BECMG 2308/2310 34006KT BECMG 2317/2319 15005KT